Terminal Aerodrome Forecast
Issued by NWS Billings, MT

Home | Current Version | Previous Version | Text Only | Print | Product List | Glossary Off
Versions: 1 2 3 4 5 6 7 8 9 10 11 12 13 14 15 16 17 18 19 20 21 22 23 24

000
FTUS45 KBYZ 261120
TAFMLS
TAF
KMLS 261120Z 2612/2712 27010KT P6SM BKN080
     FM261600 30015G25KT P6SM BKN080
     FM270200 31008KT P6SM BKN080
     FM270600 16006KT P6SM SCT080 BKN150=

USA.gov is the U.S. government's official web portal to all federal, state and local government web resources and services.